sensor_id;sensor_type;location;lat;lon;timestamp;P1;durP1;ratioP1;P2;durP2;ratioP2
15526;SDS011;7865;50.918;4.510;2023-06-14T00:01:02;8.98;;;5.68;;
15526;SDS011;7865;50.918;4.510;2023-06-14T00:06:07;8.85;;;5.90;;
15526;SDS011;7865;50.918;4.510;2023-06-14T00:11:09;9.85;;;5.93;;
15526;SDS011;7865;50.918;4.510;2023-06-14T00:16:11;9.38;;;5.85;;
15526;SDS011;7865;50.918;4.510;2023-06-14T00:21:14;7.68;;;5.72;;
15526;SDS011;7865;50.918;4.510;2023-06-14T00:26:16;11.63;;;5.63;;
15526;SDS011;7865;50.918;4.510;2023-06-14T00:31:18;8.35;;;6.15;;
15526;SDS011;7865;50.918;4.510;2023-06-14T00:36:21;13.25;;;6.03;;
15526;SDS011;7865;50.918;4.510;2023-06-14T00:41:23;7.53;;;6.18;;
15526;SDS011;7865;50.918;4.510;2023-06-14T00:46:26;13.40;;;6.07;;
15526;SDS011;7865;50.918;4.510;2023-06-14T00:51:28;8.57;;;5.45;;
15526;SDS011;7865;50.918;4.510;2023-06-14T00:56:31;10.48;;;5.70;;
15526;SDS011;7865;50.918;4.510;2023-06-14T01:01:33;6.78;;;6.07;;
15526;SDS011;7865;50.918;4.510;2023-06-14T01:12:07;10.60;;;5.97;;
15526;SDS011;7865;50.918;4.510;2023-06-14T01:17:17;10.87;;;6.03;;
15526;SDS011;7865;50.918;4.510;2023-06-14T01:22:22;9.57;;;6.03;;
15526;SDS011;7865;50.918;4.510;2023-06-14T01:27:29;7.17;;;5.70;;
15526;SDS011;7865;50.918;4.510;2023-06-14T01:32:34;7.17;;;5.63;;
15526;SDS011;7865;50.918;4.510;2023-06-14T01:37:36;7.30;;;5.57;;
15526;SDS011;7865;50.918;4.510;2023-06-14T01:42:39;9.73;;;6.00;;
15526;SDS011;7865;50.918;4.510;2023-06-14T01:47:44;10.07;;;6.77;;
15526;SDS011;7865;50.918;4.510;2023-06-14T01:52:47;7.47;;;6.70;;
15526;SDS011;7865;50.918;4.510;2023-06-14T01:57:49;7.27;;;6.47;;
15526;SDS011;7865;50.918;4.510;2023-06-14T02:02:51;9.57;;;6.13;;
15526;SDS011;7865;50.918;4.510;2023-06-14T02:07:53;8.87;;;6.63;;
15526;SDS011;7865;50.918;4.510;2023-06-14T02:12:56;7.43;;;6.50;;
15526;SDS011;7865;50.918;4.510;2023-06-14T02:17:58;7.87;;;5.90;;
15526;SDS011;7865;50.918;4.510;2023-06-14T02:23:00;7.87;;;7.07;;
15526;SDS011;7865;50.918;4.510;2023-06-14T02:28:05;8.60;;;6.70;;
15526;SDS011;7865;50.918;4.510;2023-06-14T02:33:07;8.60;;;6.73;;
15526;SDS011;7865;50.918;4.510;2023-06-14T02:38:17;8.53;;;7.00;;
15526;SDS011;7865;50.918;4.510;2023-06-14T02:43:22;12.13;;;6.53;;
15526;SDS011;7865;50.918;4.510;2023-06-14T02:48:24;10.97;;;7.03;;
15526;SDS011;7865;50.918;4.510;2023-06-14T02:53:27;10.67;;;6.97;;
15526;SDS011;7865;50.918;4.510;2023-06-14T02:58:29;12.27;;;7.27;;
15526;SDS011;7865;50.918;4.510;2023-06-14T03:03:31;10.73;;;7.93;;
15526;SDS011;7865;50.918;4.510;2023-06-14T03:08:34;10.03;;;7.33;;
15526;SDS011;7865;50.918;4.510;2023-06-14T03:13:46;11.10;;;7.20;;
15526;SDS011;7865;50.918;4.510;2023-06-14T03:18:49;7.77;;;6.97;;
15526;SDS011;7865;50.918;4.510;2023-06-14T03:23:52;8.67;;;7.77;;
15526;SDS011;7865;50.918;4.510;2023-06-14T03:28:55;11.07;;;7.73;;
15526;SDS011;7865;50.918;4.510;2023-06-14T03:33:58;11.37;;;6.93;;
15526;SDS011;7865;50.918;4.510;2023-06-14T03:39:01;10.13;;;8.03;;
15526;SDS011;7865;50.918;4.510;2023-06-14T03:44:03;11.40;;;8.03;;
15526;SDS011;7865;50.918;4.510;2023-06-14T03:49:06;13.40;;;8.00;;
15526;SDS011;7865;50.918;4.510;2023-06-14T03:54:08;13.37;;;8.03;;
15526;SDS011;7865;50.918;4.510;2023-06-14T03:59:31;12.00;;;7.47;;
15526;SDS011;7865;50.918;4.510;2023-06-14T04:04:33;8.63;;;7.33;;
15526;SDS011;7865;50.918;4.510;2023-06-14T04:09:39;13.30;;;7.53;;
15526;SDS011;7865;50.918;4.510;2023-06-14T04:14:42;11.33;;;8.70;;
15526;SDS011;7865;50.918;4.510;2023-06-14T04:19:45;10.53;;;8.17;;
15526;SDS011;7865;50.918;4.510;2023-06-14T04:24:49;10.87;;;7.60;;
15526;SDS011;7865;50.918;4.510;2023-06-14T04:30:06;9.83;;;8.07;;
15526;SDS011;7865;50.918;4.510;2023-06-14T04:35:15;12.03;;;8.20;;
15526;SDS011;7865;50.918;4.510;2023-06-14T04:40:20;10.73;;;8.50;;
15526;SDS011;7865;50.918;4.510;2023-06-14T04:45:22;10.07;;;9.03;;
15526;SDS011;7865;50.918;4.510;2023-06-14T04:50:25;11.87;;;9.97;;
15526;SDS011;7865;50.918;4.510;2023-06-14T04:55:28;10.37;;;9.00;;
15526;SDS011;7865;50.918;4.510;2023-06-14T05:00:30;15.10;;;9.40;;
15526;SDS011;7865;50.918;4.510;2023-06-14T05:05:33;13.07;;;9.27;;
15526;SDS011;7865;50.918;4.510;2023-06-14T05:10:36;11.55;;;9.00;;
15526;SDS011;7865;50.918;4.510;2023-06-14T05:15:38;12.43;;;8.57;;
15526;SDS011;7865;50.918;4.510;2023-06-14T05:20:40;11.80;;;9.00;;
15526;SDS011;7865;50.918;4.510;2023-06-14T05:25:46;14.68;;;8.85;;
15526;SDS011;7865;50.918;4.510;2023-06-14T05:30:48;14.27;;;8.55;;
15526;SDS011;7865;50.918;4.510;2023-06-14T05:35:50;12.95;;;8.27;;
15526;SDS011;7865;50.918;4.510;2023-06-14T05:40:53;15.40;;;8.52;;
15526;SDS011;7865;50.918;4.510;2023-06-14T05:45:55;16.75;;;8.80;;
15526;SDS011;7865;50.918;4.510;2023-06-14T05:50:58;11.73;;;8.70;;
15526;SDS011;7865;50.918;4.510;2023-06-14T05:56:00;12.52;;;8.02;;
15526;SDS011;7865;50.918;4.510;2023-06-14T06:01:02;9.68;;;8.20;;
15526;SDS011;7865;50.918;4.510;2023-06-14T06:06:05;9.65;;;7.75;;
15526;SDS011;7865;50.918;4.510;2023-06-14T06:11:07;10.90;;;8.00;;
15526;SDS011;7865;50.918;4.510;2023-06-14T06:16:09;10.20;;;7.72;;
15526;SDS011;7865;50.918;4.510;2023-06-14T06:21:11;11.05;;;7.97;;
15526;SDS011;7865;50.918;4.510;2023-06-14T06:26:13;10.65;;;7.65;;
15526;SDS011;7865;50.918;4.510;2023-06-14T06:31:15;14.32;;;8.15;;
15526;SDS011;7865;50.918;4.510;2023-06-14T06:36:18;11.60;;;8.20;;
15526;SDS011;7865;50.918;4.510;2023-06-14T06:41:20;10.27;;;7.32;;
15526;SDS011;7865;50.918;4.510;2023-06-14T06:46:22;13.07;;;7.00;;
15526;SDS011;7865;50.918;4.510;2023-06-14T06:51:24;13.15;;;7.63;;
15526;SDS011;7865;50.918;4.510;2023-06-14T06:56:26;13.10;;;7.13;;
15526;SDS011;7865;50.918;4.510;2023-06-14T07:01:28;13.45;;;7.18;;
15526;SDS011;7865;50.918;4.510;2023-06-14T07:06:30;14.45;;;7.07;;
15526;SDS011;7865;50.918;4.510;2023-06-14T07:11:33;14.13;;;7.13;;
15526;SDS011;7865;50.918;4.510;2023-06-14T07:16:35;14.07;;;7.38;;
15526;SDS011;7865;50.918;4.510;2023-06-14T07:21:37;8.27;;;6.15;;
15526;SDS011;7865;50.918;4.510;2023-06-14T07:26:39;8.50;;;6.75;;
15526;SDS011;7865;50.918;4.510;2023-06-14T07:31:41;8.02;;;6.30;;
15526;SDS011;7865;50.918;4.510;2023-06-14T07:36:43;8.88;;;7.00;;
15526;SDS011;7865;50.918;4.510;2023-06-14T07:41:46;10.80;;;6.15;;
15526;SDS011;7865;50.918;4.510;2023-06-14T07:46:48;10.98;;;5.80;;
15526;SDS011;7865;50.918;4.510;2023-06-14T07:51:53;11.15;;;6.82;;
15526;SDS011;7865;50.918;4.510;2023-06-14T07:56:55;10.57;;;6.38;;
15526;SDS011;7865;50.918;4.510;2023-06-14T08:01:57;9.88;;;5.88;;
15526;SDS011;7865;50.918;4.510;2023-06-14T08:06:59;10.23;;;5.30;;
15526;SDS011;7865;50.918;4.510;2023-06-14T08:12:02;10.15;;;6.78;;
15526;SDS011;7865;50.918;4.510;2023-06-14T08:17:06;14.13;;;5.88;;
15526;SDS011;7865;50.918;4.510;2023-06-14T08:22:08;11.32;;;6.10;;
15526;SDS011;7865;50.918;4.510;2023-06-14T08:27:13;7.55;;;6.03;;
15526;SDS011;7865;50.918;4.510;2023-06-14T08:32:15;8.77;;;5.45;;
15526;SDS011;7865;50.918;4.510;2023-06-14T08:37:17;8.70;;;5.60;;
15526;SDS011;7865;50.918;4.510;2023-06-14T08:42:19;8.50;;;5.38;;
15526;SDS011;7865;50.918;4.510;2023-06-14T08:47:32;8.10;;;5.40;;
15526;SDS011;7865;50.918;4.510;2023-06-14T08:52:43;10.25;;;5.25;;
15526;SDS011;7865;50.918;4.510;2023-06-14T08:57:51;8.15;;;5.22;;
15526;SDS011;7865;50.918;4.510;2023-06-14T09:02:54;9.98;;;5.72;;
15526;SDS011;7865;50.918;4.510;2023-06-14T09:08:00;9.63;;;6.47;;
15526;SDS011;7865;50.918;4.510;2023-06-14T09:13:07;6.78;;;5.10;;
15526;SDS011;7865;50.918;4.510;2023-06-14T09:18:09;7.85;;;5.35;;
15526;SDS011;7865;50.918;4.510;2023-06-14T09:23:12;7.35;;;5.38;;
15526;SDS011;7865;50.918;4.510;2023-06-14T09:28:15;7.93;;;5.93;;
15526;SDS011;7865;50.918;4.510;2023-06-14T09:33:17;6.60;;;5.20;;
15526;SDS011;7865;50.918;4.510;2023-06-14T09:38:20;5.43;;;4.93;;
15526;SDS011;7865;50.918;4.510;2023-06-14T09:43:22;5.28;;;4.78;;
15526;SDS011;7865;50.918;4.510;2023-06-14T09:48:25;10.00;;;4.45;;
15526;SDS011;7865;50.918;4.510;2023-06-14T09:53:29;5.97;;;5.03;;
15526;SDS011;7865;50.918;4.510;2023-06-14T09:58:32;7.18;;;4.97;;
15526;SDS011;7865;50.918;4.510;2023-06-14T10:03:38;7.30;;;4.53;;
15526;SDS011;7865;50.918;4.510;2023-06-14T10:09:01;6.55;;;4.63;;
15526;SDS011;7865;50.918;4.510;2023-06-14T10:14:05;5.47;;;4.32;;
15526;SDS011;7865;50.918;4.510;2023-06-14T10:24:32;5.47;;;4.25;;
15526;SDS011;7865;50.918;4.510;2023-06-14T10:30:21;6.38;;;3.55;;
15526;SDS011;7865;50.918;4.510;2023-06-14T10:35:09;4.25;;;3.85;;
15526;SDS011;7865;50.918;4.510;2023-06-14T10:40:30;9.45;;;4.18;;
15526;SDS011;7865;50.918;4.510;2023-06-14T10:45:33;8.52;;;3.83;;
15526;SDS011;7865;50.918;4.510;2023-06-14T10:50:35;5.28;;;3.53;;
15526;SDS011;7865;50.918;4.510;2023-06-14T10:55:37;5.07;;;3.67;;
15526;SDS011;7865;50.918;4.510;2023-06-14T11:00:39;5.80;;;3.72;;
15526;SDS011;7865;50.918;4.510;2023-06-14T11:10:48;6.13;;;4.30;;
15526;SDS011;7865;50.918;4.510;2023-06-14T11:15:52;13.23;;;3.97;;
15526;SDS011;7865;50.918;4.510;2023-06-14T11:20:59;5.93;;;4.18;;
15526;SDS011;7865;50.918;4.510;2023-06-14T11:26:01;4.28;;;3.70;;
15526;SDS011;7865;50.918;4.510;2023-06-14T11:31:04;9.43;;;4.05;;
15526;SDS011;7865;50.918;4.510;2023-06-14T11:36:06;6.95;;;3.30;;
15526;SDS011;7865;50.918;4.510;2023-06-14T11:41:10;6.47;;;3.92;;
15526;SDS011;7865;50.918;4.510;2023-06-14T11:46:13;6.13;;;3.65;;
15526;SDS011;7865;50.918;4.510;2023-06-14T11:51:18;7.63;;;3.20;;
15526;SDS011;7865;50.918;4.510;2023-06-14T11:56:20;4.30;;;3.40;;
15526;SDS011;7865;50.918;4.510;2023-06-14T12:01:22;6.57;;;3.80;;
15526;SDS011;7865;50.918;4.510;2023-06-14T12:06:27;6.10;;;3.20;;
15526;SDS011;7865;50.918;4.510;2023-06-14T12:11:36;7.57;;;3.08;;
15526;SDS011;7865;50.918;4.510;2023-06-14T12:16:39;5.35;;;3.30;;
15526;SDS011;7865;50.918;4.510;2023-06-14T12:21:46;5.25;;;3.30;;
15526;SDS011;7865;50.918;4.510;2023-06-14T12:26:51;5.60;;;3.40;;
15526;SDS011;7865;50.918;4.510;2023-06-14T12:31:54;3.20;;;2.65;;
15526;SDS011;7865;50.918;4.510;2023-06-14T12:36:58;8.90;;;3.55;;
15526;SDS011;7865;50.918;4.510;2023-06-14T12:42:01;5.80;;;3.20;;
15526;SDS011;7865;50.918;4.510;2023-06-14T12:47:05;3.95;;;2.78;;
15526;SDS011;7865;50.918;4.510;2023-06-14T12:52:08;4.15;;;3.20;;
15526;SDS011;7865;50.918;4.510;2023-06-14T12:57:10;4.60;;;3.28;;
15526;SDS011;7865;50.918;4.510;2023-06-14T13:02:13;6.65;;;3.03;;
15526;SDS011;7865;50.918;4.510;2023-06-14T13:07:17;6.10;;;2.80;;
15526;SDS011;7865;50.918;4.510;2023-06-14T13:12:19;5.60;;;2.75;;
15526;SDS011;7865;50.918;4.510;2023-06-14T13:17:21;2.92;;;2.70;;
15526;SDS011;7865;50.918;4.510;2023-06-14T13:22:24;4.82;;;2.60;;
15526;SDS011;7865;50.918;4.510;2023-06-14T13:27:26;4.05;;;2.28;;
15526;SDS011;7865;50.918;4.510;2023-06-14T13:32:29;4.57;;;2.35;;
15526;SDS011;7865;50.918;4.510;2023-06-14T13:37:31;4.68;;;2.42;;
15526;SDS011;7865;50.918;4.510;2023-06-14T13:42:33;2.38;;;2.17;;
15526;SDS011;7865;50.918;4.510;2023-06-14T13:47:35;3.50;;;1.77;;
15526;SDS011;7865;50.918;4.510;2023-06-14T13:52:38;5.43;;;1.90;;
15526;SDS011;7865;50.918;4.510;2023-06-14T13:57:40;2.80;;;1.92;;
15526;SDS011;7865;50.918;4.510;2023-06-14T14:02:42;3.58;;;1.50;;
15526;SDS011;7865;50.918;4.510;2023-06-14T14:07:44;5.53;;;1.40;;
15526;SDS011;7865;50.918;4.510;2023-06-14T14:12:47;3.50;;;1.67;;
15526;SDS011;7865;50.918;4.510;2023-06-14T14:17:50;1.70;;;1.48;;
15526;SDS011;7865;50.918;4.510;2023-06-14T14:22:53;4.07;;;1.58;;
15526;SDS011;7865;50.918;4.510;2023-06-14T14:27:56;2.83;;;1.50;;
15526;SDS011;7865;50.918;4.510;2023-06-14T14:32:58;5.28;;;1.83;;
15526;SDS011;7865;50.918;4.510;2023-06-14T14:38:00;2.53;;;1.60;;
15526;SDS011;7865;50.918;4.510;2023-06-14T14:43:05;3.00;;;1.77;;
15526;SDS011;7865;50.918;4.510;2023-06-14T14:48:07;1.88;;;1.70;;
15526;SDS011;7865;50.918;4.510;2023-06-14T14:53:09;3.47;;;1.77;;
15526;SDS011;7865;50.918;4.510;2023-06-14T14:58:12;2.67;;;1.90;;
15526;SDS011;7865;50.918;4.510;2023-06-14T15:03:16;2.05;;;1.85;;
15526;SDS011;7865;50.918;4.510;2023-06-14T15:08:18;3.30;;;2.00;;
15526;SDS011;7865;50.918;4.510;2023-06-14T15:13:20;2.95;;;1.50;;
15526;SDS011;7865;50.918;4.510;2023-06-14T15:18:24;5.10;;;1.90;;
15526;SDS011;7865;50.918;4.510;2023-06-14T15:23:26;2.15;;;1.95;;
15526;SDS011;7865;50.918;4.510;2023-06-14T15:28:28;2.70;;;2.00;;
15526;SDS011;7865;50.918;4.510;2023-06-14T15:33:30;2.22;;;1.77;;
15526;SDS011;7865;50.918;4.510;2023-06-14T15:38:33;2.88;;;2.00;;
15526;SDS011;7865;50.918;4.510;2023-06-14T15:43:35;3.08;;;1.75;;
15526;SDS011;7865;50.918;4.510;2023-06-14T15:48:37;4.38;;;1.90;;
15526;SDS011;7865;50.918;4.510;2023-06-14T15:53:39;5.35;;;1.63;;
15526;SDS011;7865;50.918;4.510;2023-06-14T15:58:41;4.25;;;1.92;;
15526;SDS011;7865;50.918;4.510;2023-06-14T16:03:43;6.10;;;1.88;;
15526;SDS011;7865;50.918;4.510;2023-06-14T16:08:46;5.28;;;1.70;;
15526;SDS011;7865;50.918;4.510;2023-06-14T16:13:48;3.05;;;1.77;;
15526;SDS011;7865;50.918;4.510;2023-06-14T16:18:50;2.50;;;1.60;;
15526;SDS011;7865;50.918;4.510;2023-06-14T16:23:52;3.17;;;1.83;;
15526;SDS011;7865;50.918;4.510;2023-06-14T16:28:55;5.25;;;1.77;;
15526;SDS011;7865;50.918;4.510;2023-06-14T16:33:57;3.50;;;1.83;;
15526;SDS011;7865;50.918;4.510;2023-06-14T16:38:59;2.33;;;1.50;;
15526;SDS011;7865;50.918;4.510;2023-06-14T16:44:01;3.58;;;1.30;;
15526;SDS011;7865;50.918;4.510;2023-06-14T16:49:05;5.10;;;2.05;;
15526;SDS011;7865;50.918;4.510;2023-06-14T16:54:14;2.42;;;1.40;;
15526;SDS011;7865;50.918;4.510;2023-06-14T16:59:16;4.22;;;1.83;;
15526;SDS011;7865;50.918;4.510;2023-06-14T17:04:18;5.47;;;1.80;;
15526;SDS011;7865;50.918;4.510;2023-06-14T17:09:21;3.65;;;1.50;;
15526;SDS011;7865;50.918;4.510;2023-06-14T17:14:23;2.17;;;1.40;;
15526;SDS011;7865;50.918;4.510;2023-06-14T17:19:25;2.85;;;1.50;;
15526;SDS011;7865;50.918;4.510;2023-06-14T17:24:28;4.45;;;1.40;;
15526;SDS011;7865;50.918;4.510;2023-06-14T17:29:30;2.53;;;1.40;;
15526;SDS011;7865;50.918;4.510;2023-06-14T17:34:32;2.03;;;1.55;;
15526;SDS011;7865;50.918;4.510;2023-06-14T17:39:34;1.58;;;1.27;;
15526;SDS011;7865;50.918;4.510;2023-06-14T17:44:37;5.30;;;1.13;;
15526;SDS011;7865;50.918;4.510;2023-06-14T17:49:39;8.55;;;1.95;;
15526;SDS011;7865;50.918;4.510;2023-06-14T17:54:41;1.33;;;0.93;;
15526;SDS011;7865;50.918;4.510;2023-06-14T17:59:44;2.60;;;1.17;;
15526;SDS011;7865;50.918;4.510;2023-06-14T18:04:47;2.70;;;1.48;;
15526;SDS011;7865;50.918;4.510;2023-06-14T18:09:57;3.83;;;1.20;;
15526;SDS011;7865;50.918;4.510;2023-06-14T18:14:59;4.78;;;1.50;;
15526;SDS011;7865;50.918;4.510;2023-06-14T18:20:02;2.67;;;1.23;;
15526;SDS011;7865;50.918;4.510;2023-06-14T18:25:05;3.17;;;1.13;;
15526;SDS011;7865;50.918;4.510;2023-06-14T18:30:08;3.83;;;1.23;;
15526;SDS011;7865;50.918;4.510;2023-06-14T18:35:14;4.00;;;1.40;;
15526;SDS011;7865;50.918;4.510;2023-06-14T18:40:19;2.00;;;1.20;;
15526;SDS011;7865;50.918;4.510;2023-06-14T18:45:21;2.17;;;1.42;;
15526;SDS011;7865;50.918;4.510;2023-06-14T18:50:23;7.40;;;1.60;;
15526;SDS011;7865;50.918;4.510;2023-06-14T18:55:26;5.05;;;1.63;;
15526;SDS011;7865;50.918;4.510;2023-06-14T19:00:28;3.38;;;1.10;;
15526;SDS011;7865;50.918;4.510;2023-06-14T19:05:31;7.15;;;1.67;;
15526;SDS011;7865;50.918;4.510;2023-06-14T19:10:34;2.47;;;1.60;;
15526;SDS011;7865;50.918;4.510;2023-06-14T19:15:37;3.42;;;1.40;;
15526;SDS011;7865;50.918;4.510;2023-06-14T19:20:39;4.70;;;1.50;;
15526;SDS011;7865;50.918;4.510;2023-06-14T19:25:41;5.68;;;1.80;;
15526;SDS011;7865;50.918;4.510;2023-06-14T19:30:43;6.80;;;1.60;;
15526;SDS011;7865;50.918;4.510;2023-06-14T19:35:45;1.40;;;1.30;;
15526;SDS011;7865;50.918;4.510;2023-06-14T19:40:48;4.80;;;1.73;;
15526;SDS011;7865;50.918;4.510;2023-06-14T19:45:50;2.35;;;1.70;;
15526;SDS011;7865;50.918;4.510;2023-06-14T19:50:52;5.03;;;1.80;;
15526;SDS011;7865;50.918;4.510;2023-06-14T19:55:54;3.00;;;1.35;;
15526;SDS011;7865;50.918;4.510;2023-06-14T20:00:56;3.25;;;1.67;;
15526;SDS011;7865;50.918;4.510;2023-06-14T20:05:58;5.28;;;1.55;;
15526;SDS011;7865;50.918;4.510;2023-06-14T20:11:00;4.20;;;1.40;;
15526;SDS011;7865;50.918;4.510;2023-06-14T20:16:02;3.00;;;1.33;;
15526;SDS011;7865;50.918;4.510;2023-06-14T20:21:05;2.45;;;1.40;;
15526;SDS011;7865;50.918;4.510;2023-06-14T20:26:08;3.70;;;1.90;;
15526;SDS011;7865;50.918;4.510;2023-06-14T20:31:10;6.47;;;2.10;;
15526;SDS011;7865;50.918;4.510;2023-06-14T20:36:15;5.10;;;2.08;;
15526;SDS011;7865;50.918;4.510;2023-06-14T20:41:17;4.72;;;1.73;;
15526;SDS011;7865;50.918;4.510;2023-06-14T20:46:19;7.90;;;2.50;;
15526;SDS011;7865;50.918;4.510;2023-06-14T20:51:22;5.03;;;2.00;;
15526;SDS011;7865;50.918;4.510;2023-06-14T20:56:24;5.45;;;2.22;;
15526;SDS011;7865;50.918;4.510;2023-06-14T21:01:27;2.33;;;2.05;;
15526;SDS011;7865;50.918;4.510;2023-06-14T21:06:38;2.47;;;1.80;;
15526;SDS011;7865;50.918;4.510;2023-06-14T21:11:40;4.07;;;2.33;;
15526;SDS011;7865;50.918;4.510;2023-06-14T21:16:42;7.07;;;2.10;;
15526;SDS011;7865;50.918;4.510;2023-06-14T21:21:44;2.65;;;1.70;;
15526;SDS011;7865;50.918;4.510;2023-06-14T21:26:47;4.90;;;2.00;;
15526;SDS011;7865;50.918;4.510;2023-06-14T21:31:49;3.58;;;1.90;;
15526;SDS011;7865;50.918;4.510;2023-06-14T21:36:52;4.45;;;2.20;;
15526;SDS011;7865;50.918;4.510;2023-06-14T21:41:54;5.85;;;2.20;;
15526;SDS011;7865;50.918;4.510;2023-06-14T21:46:56;4.97;;;1.80;;
15526;SDS011;7865;50.918;4.510;2023-06-14T21:51:58;2.85;;;2.00;;
15526;SDS011;7865;50.918;4.510;2023-06-14T21:57:00;4.78;;;2.35;;
15526;SDS011;7865;50.918;4.510;2023-06-14T22:02:02;5.10;;;1.85;;
15526;SDS011;7865;50.918;4.510;2023-06-14T22:07:05;7.60;;;2.63;;
15526;SDS011;7865;50.918;4.510;2023-06-14T22:12:08;7.65;;;2.20;;
15526;SDS011;7865;50.918;4.510;2023-06-14T22:17:17;8.15;;;2.55;;
15526;SDS011;7865;50.918;4.510;2023-06-14T22:22:23;8.95;;;2.40;;
15526;SDS011;7865;50.918;4.510;2023-06-14T22:27:28;3.70;;;2.40;;
15526;SDS011;7865;50.918;4.510;2023-06-14T22:32:31;10.05;;;2.53;;
15526;SDS011;7865;50.918;4.510;2023-06-14T22:37:35;4.18;;;2.60;;
15526;SDS011;7865;50.918;4.510;2023-06-14T22:42:40;7.72;;;2.65;;
15526;SDS011;7865;50.918;4.510;2023-06-14T22:47:48;8.52;;;2.50;;
15526;SDS011;7865;50.918;4.510;2023-06-14T22:52:54;2.92;;;2.60;;
15526;SDS011;7865;50.918;4.510;2023-06-14T22:57:56;3.70;;;2.08;;
15526;SDS011;7865;50.918;4.510;2023-06-14T23:02:58;3.45;;;2.40;;
15526;SDS011;7865;50.918;4.510;2023-06-14T23:08:00;3.80;;;2.38;;
15526;SDS011;7865;50.918;4.510;2023-06-14T23:13:02;11.13;;;3.03;;
15526;SDS011;7865;50.918;4.510;2023-06-14T23:18:04;3.53;;;2.30;;
15526;SDS011;7865;50.918;4.510;2023-06-14T23:23:07;5.03;;;2.50;;
15526;SDS011;7865;50.918;4.510;2023-06-14T23:28:09;5.32;;;2.90;;
15526;SDS011;7865;50.918;4.510;2023-06-14T23:33:11;4.38;;;2.45;;
15526;SDS011;7865;50.918;4.510;2023-06-14T23:38:17;2.55;;;2.33;;
15526;SDS011;7865;50.918;4.510;2023-06-14T23:43:20;5.72;;;2.60;;
15526;SDS011;7865;50.918;4.510;2023-06-14T23:48:22;4.77;;;2.53;;
15526;SDS011;7865;50.918;4.510;2023-06-14T23:53:28;5.73;;;2.60;;
15526;SDS011;7865;50.918;4.510;2023-06-14T23:58:30;5.60;;;2.90;;
